sensor_id;sensor_type;location;lat;lon;timestamp;P1;durP1;ratioP1;P2;durP2;ratioP2
30605;SDS011;17371;51.328;3.860;2022-12-20T00:02:19;7.83;;;4.10;;
30605;SDS011;17371;51.328;3.860;2022-12-20T00:04:44;8.93;;;4.27;;
30605;SDS011;17371;51.328;3.860;2022-12-20T00:07:10;11.83;;;3.97;;
30605;SDS011;17371;51.328;3.860;2022-12-20T00:09:36;8.10;;;4.47;;
30605;SDS011;17371;51.328;3.860;2022-12-20T00:12:02;6.80;;;4.40;;
30605;SDS011;17371;51.328;3.860;2022-12-20T00:14:27;9.00;;;4.32;;
30605;SDS011;17371;51.328;3.860;2022-12-20T00:16:53;8.93;;;4.63;;
30605;SDS011;17371;51.328;3.860;2022-12-20T00:19:18;6.93;;;4.23;;
30605;SDS011;17371;51.328;3.860;2022-12-20T00:21:44;7.37;;;4.43;;
30605;SDS011;17371;51.328;3.860;2022-12-20T00:24:09;9.83;;;4.87;;
30605;SDS011;17371;51.328;3.860;2022-12-20T00:26:36;22.63;;;8.70;;
30605;SDS011;17371;51.328;3.860;2022-12-20T00:29:03;30.67;;;11.35;;
30605;SDS011;17371;51.328;3.860;2022-12-20T00:31:29;40.10;;;15.10;;
30605;SDS011;17371;51.328;3.860;2022-12-20T00:33:55;45.73;;;15.03;;
30605;SDS011;17371;51.328;3.860;2022-12-20T00:36:21;43.55;;;16.67;;
30605;SDS011;17371;51.328;3.860;2022-12-20T00:38:49;45.30;;;15.75;;
30605;SDS011;17371;51.328;3.860;2022-12-20T00:41:16;24.90;;;10.77;;
30605;SDS011;17371;51.328;3.860;2022-12-20T00:43:44;17.03;;;8.50;;
30605;SDS011;17371;51.328;3.860;2022-12-20T00:46:10;14.98;;;6.55;;
30605;SDS011;17371;51.328;3.860;2022-12-20T00:48:36;8.60;;;5.35;;
30605;SDS011;17371;51.328;3.860;2022-12-20T00:51:04;9.00;;;5.75;;
30605;SDS011;17371;51.328;3.860;2022-12-20T00:53:31;8.85;;;4.78;;
30605;SDS011;17371;51.328;3.860;2022-12-20T00:55:58;8.67;;;5.17;;
30605;SDS011;17371;51.328;3.860;2022-12-20T00:58:23;10.77;;;5.57;;
30605;SDS011;17371;51.328;3.860;2022-12-20T01:00:50;10.63;;;5.88;;
30605;SDS011;17371;51.328;3.860;2022-12-20T01:03:16;13.07;;;5.53;;
30605;SDS011;17371;51.328;3.860;2022-12-20T01:05:49;8.63;;;4.85;;
30605;SDS011;17371;51.328;3.860;2022-12-20T01:08:15;13.33;;;5.70;;
30605;SDS011;17371;51.328;3.860;2022-12-20T01:10:40;13.23;;;6.30;;
30605;SDS011;17371;51.328;3.860;2022-12-20T01:13:06;12.73;;;4.93;;
30605;SDS011;17371;51.328;3.860;2022-12-20T01:15:31;18.80;;;7.60;;
30605;SDS011;17371;51.328;3.860;2022-12-20T01:17:59;14.80;;;7.30;;
30605;SDS011;17371;51.328;3.860;2022-12-20T01:20:24;17.90;;;7.07;;
30605;SDS011;17371;51.328;3.860;2022-12-20T01:22:50;14.50;;;6.20;;
30605;SDS011;17371;51.328;3.860;2022-12-20T01:25:15;17.02;;;8.02;;
30605;SDS011;17371;51.328;3.860;2022-12-20T01:27:40;17.03;;;7.80;;
30605;SDS011;17371;51.328;3.860;2022-12-20T01:30:07;27.73;;;10.33;;
30605;SDS011;17371;51.328;3.860;2022-12-20T01:32:34;19.85;;;8.60;;
30605;SDS011;17371;51.328;3.860;2022-12-20T01:35:01;22.87;;;9.53;;
30605;SDS011;17371;51.328;3.860;2022-12-20T01:37:26;22.45;;;8.23;;
30605;SDS011;17371;51.328;3.860;2022-12-20T01:39:52;34.57;;;11.23;;
30605;SDS011;17371;51.328;3.860;2022-12-20T01:42:17;23.70;;;9.77;;
30605;SDS011;17371;51.328;3.860;2022-12-20T01:44:56;27.80;;;11.67;;
30605;SDS011;17371;51.328;3.860;2022-12-20T01:47:23;24.52;;;10.50;;
30605;SDS011;17371;51.328;3.860;2022-12-20T01:49:50;24.88;;;9.45;;
30605;SDS011;17371;51.328;3.860;2022-12-20T01:52:18;22.00;;;8.45;;
30605;SDS011;17371;51.328;3.860;2022-12-20T01:54:47;33.13;;;13.50;;
30605;SDS011;17371;51.328;3.860;2022-12-20T01:57:15;27.17;;;10.68;;
30605;SDS011;17371;51.328;3.860;2022-12-20T01:59:43;23.95;;;8.70;;
30605;SDS011;17371;51.328;3.860;2022-12-20T02:02:11;22.25;;;8.75;;
30605;SDS011;17371;51.328;3.860;2022-12-20T02:04:37;25.58;;;10.35;;
30605;SDS011;17371;51.328;3.860;2022-12-20T02:07:02;16.23;;;7.77;;
30605;SDS011;17371;51.328;3.860;2022-12-20T02:09:30;24.60;;;10.13;;
30605;SDS011;17371;51.328;3.860;2022-12-20T02:12:00;19.17;;;8.40;;
30605;SDS011;17371;51.328;3.860;2022-12-20T02:14:32;22.35;;;8.07;;
30605;SDS011;17371;51.328;3.860;2022-12-20T02:17:07;25.75;;;9.95;;
30605;SDS011;17371;51.328;3.860;2022-12-20T02:19:44;28.95;;;10.65;;
30605;SDS011;17371;51.328;3.860;2022-12-20T02:22:22;28.65;;;10.63;;
30605;SDS011;17371;51.328;3.860;2022-12-20T02:24:59;26.30;;;8.97;;
30605;SDS011;17371;51.328;3.860;2022-12-20T02:27:39;30.40;;;11.75;;
30605;SDS011;17371;51.328;3.860;2022-12-20T02:30:11;26.20;;;9.40;;
30605;SDS011;17371;51.328;3.860;2022-12-20T02:32:39;32.80;;;11.48;;
30605;SDS011;17371;51.328;3.860;2022-12-20T02:35:10;38.33;;;14.35;;
30605;SDS011;17371;51.328;3.860;2022-12-20T02:37:45;41.47;;;15.17;;
30605;SDS011;17371;51.328;3.860;2022-12-20T02:40:11;48.88;;;15.52;;
30605;SDS011;17371;51.328;3.860;2022-12-20T02:42:37;44.45;;;15.00;;
30605;SDS011;17371;51.328;3.860;2022-12-20T02:45:04;44.77;;;16.43;;
30605;SDS011;17371;51.328;3.860;2022-12-20T02:47:32;48.67;;;16.27;;
30605;SDS011;17371;51.328;3.860;2022-12-20T02:50:00;33.03;;;12.50;;
30605;SDS011;17371;51.328;3.860;2022-12-20T02:52:26;38.83;;;13.85;;
30605;SDS011;17371;51.328;3.860;2022-12-20T02:54:53;42.33;;;14.87;;
30605;SDS011;17371;51.328;3.860;2022-12-20T02:57:19;37.97;;;14.40;;
30605;SDS011;17371;51.328;3.860;2022-12-20T02:59:48;46.25;;;15.68;;
30605;SDS011;17371;51.328;3.860;2022-12-20T03:02:18;52.20;;;17.10;;
30605;SDS011;17371;51.328;3.860;2022-12-20T03:04:45;35.70;;;12.80;;
30605;SDS011;17371;51.328;3.860;2022-12-20T03:07:12;40.38;;;14.70;;
30605;SDS011;17371;51.328;3.860;2022-12-20T03:09:38;54.10;;;19.92;;
30605;SDS011;17371;51.328;3.860;2022-12-20T03:12:05;34.78;;;12.98;;
30605;SDS011;17371;51.328;3.860;2022-12-20T03:14:31;36.08;;;13.20;;
30605;SDS011;17371;51.328;3.860;2022-12-20T03:16:56;30.03;;;11.60;;
30605;SDS011;17371;51.328;3.860;2022-12-20T03:19:22;22.47;;;10.17;;
30605;SDS011;17371;51.328;3.860;2022-12-20T03:21:49;17.97;;;8.70;;
30605;SDS011;17371;51.328;3.860;2022-12-20T03:24:14;13.35;;;7.63;;
30605;SDS011;17371;51.328;3.860;2022-12-20T03:26:40;14.40;;;7.17;;
30605;SDS011;17371;51.328;3.860;2022-12-20T03:29:05;13.55;;;6.72;;
30605;SDS011;17371;51.328;3.860;2022-12-20T03:31:31;14.60;;;5.87;;
30605;SDS011;17371;51.328;3.860;2022-12-20T03:33:56;8.67;;;4.60;;
30605;SDS011;17371;51.328;3.860;2022-12-20T03:36:22;10.57;;;6.13;;
30605;SDS011;17371;51.328;3.860;2022-12-20T03:38:48;18.08;;;7.82;;
30605;SDS011;17371;51.328;3.860;2022-12-20T03:41:14;32.80;;;11.30;;
30605;SDS011;17371;51.328;3.860;2022-12-20T03:43:39;42.10;;;13.75;;
30605;SDS011;17371;51.328;3.860;2022-12-20T03:46:05;40.73;;;13.80;;
30605;SDS011;17371;51.328;3.860;2022-12-20T03:48:30;32.53;;;13.13;;
30605;SDS011;17371;51.328;3.860;2022-12-20T03:50:56;36.73;;;13.13;;
30605;SDS011;17371;51.328;3.860;2022-12-20T03:53:21;53.97;;;15.70;;
30605;SDS011;17371;51.328;3.860;2022-12-20T03:55:48;48.30;;;16.70;;
30605;SDS011;17371;51.328;3.860;2022-12-20T03:58:13;47.47;;;15.48;;
30605;SDS011;17371;51.328;3.860;2022-12-20T04:00:38;49.57;;;16.50;;
30605;SDS011;17371;51.328;3.860;2022-12-20T04:03:04;31.50;;;11.70;;
30605;SDS011;17371;51.328;3.860;2022-12-20T04:05:29;39.13;;;12.85;;
30605;SDS011;17371;51.328;3.860;2022-12-20T04:07:55;39.47;;;13.37;;
30605;SDS011;17371;51.328;3.860;2022-12-20T04:10:20;41.00;;;13.87;;
30605;SDS011;17371;51.328;3.860;2022-12-20T04:12:47;54.97;;;15.87;;
30605;SDS011;17371;51.328;3.860;2022-12-20T04:15:12;20.90;;;9.93;;
30605;SDS011;17371;51.328;3.860;2022-12-20T04:17:37;15.13;;;8.33;;
30605;SDS011;17371;51.328;3.860;2022-12-20T04:20:03;15.70;;;7.67;;
30605;SDS011;17371;51.328;3.860;2022-12-20T04:22:30;18.13;;;7.65;;
30605;SDS011;17371;51.328;3.860;2022-12-20T04:24:55;12.13;;;6.13;;
30605;SDS011;17371;51.328;3.860;2022-12-20T04:27:20;13.03;;;6.20;;
30605;SDS011;17371;51.328;3.860;2022-12-20T04:29:47;12.70;;;5.83;;
30605;SDS011;17371;51.328;3.860;2022-12-20T04:32:12;11.35;;;5.40;;
30605;SDS011;17371;51.328;3.860;2022-12-20T04:34:38;10.87;;;5.50;;
30605;SDS011;17371;51.328;3.860;2022-12-20T04:37:03;9.67;;;4.80;;
30605;SDS011;17371;51.328;3.860;2022-12-20T04:39:29;9.18;;;5.20;;
30605;SDS011;17371;51.328;3.860;2022-12-20T04:41:54;8.05;;;4.95;;
30605;SDS011;17371;51.328;3.860;2022-12-20T04:44:19;8.20;;;4.73;;
30605;SDS011;17371;51.328;3.860;2022-12-20T04:46:46;7.93;;;4.57;;
30605;SDS011;17371;51.328;3.860;2022-12-20T04:49:11;8.68;;;4.65;;
30605;SDS011;17371;51.328;3.860;2022-12-20T04:51:37;8.13;;;4.90;;
30605;SDS011;17371;51.328;3.860;2022-12-20T04:54:02;9.47;;;5.10;;
30605;SDS011;17371;51.328;3.860;2022-12-20T04:56:28;11.67;;;4.97;;
30605;SDS011;17371;51.328;3.860;2022-12-20T04:58:53;9.80;;;4.30;;
30605;SDS011;17371;51.328;3.860;2022-12-20T05:01:20;10.02;;;4.85;;
30605;SDS011;17371;51.328;3.860;2022-12-20T05:03:47;9.80;;;4.72;;
30605;SDS011;17371;51.328;3.860;2022-12-20T05:06:13;10.03;;;4.80;;
30605;SDS011;17371;51.328;3.860;2022-12-20T05:08:39;10.55;;;5.50;;
30605;SDS011;17371;51.328;3.860;2022-12-20T05:11:04;8.03;;;4.70;;
30605;SDS011;17371;51.328;3.860;2022-12-20T05:13:30;12.85;;;5.05;;
30605;SDS011;17371;51.328;3.860;2022-12-20T05:15:56;14.43;;;6.05;;
30605;SDS011;17371;51.328;3.860;2022-12-20T05:18:22;10.07;;;4.87;;
30605;SDS011;17371;51.328;3.860;2022-12-20T05:20:49;10.80;;;4.63;;
30605;SDS011;17371;51.328;3.860;2022-12-20T05:23:14;8.68;;;4.97;;
30605;SDS011;17371;51.328;3.860;2022-12-20T05:25:40;12.07;;;6.10;;
30605;SDS011;17371;51.328;3.860;2022-12-20T05:28:08;11.52;;;6.55;;
30605;SDS011;17371;51.328;3.860;2022-12-20T05:30:33;19.67;;;7.53;;
30605;SDS011;17371;51.328;3.860;2022-12-20T05:32:58;20.10;;;8.53;;
30605;SDS011;17371;51.328;3.860;2022-12-20T05:35:24;16.80;;;7.20;;
30605;SDS011;17371;51.328;3.860;2022-12-20T05:37:50;19.10;;;7.53;;
30605;SDS011;17371;51.328;3.860;2022-12-20T05:40:16;16.50;;;7.20;;
30605;SDS011;17371;51.328;3.860;2022-12-20T05:42:41;15.70;;;6.90;;
30605;SDS011;17371;51.328;3.860;2022-12-20T05:45:07;16.77;;;6.68;;
30605;SDS011;17371;51.328;3.860;2022-12-20T05:47:33;16.57;;;6.60;;
30605;SDS011;17371;51.328;3.860;2022-12-20T05:49:58;19.80;;;7.60;;
30605;SDS011;17371;51.328;3.860;2022-12-20T05:52:24;18.40;;;7.57;;
30605;SDS011;17371;51.328;3.860;2022-12-20T05:54:50;22.17;;;7.90;;
30605;SDS011;17371;51.328;3.860;2022-12-20T05:57:16;19.90;;;8.55;;
30605;SDS011;17371;51.328;3.860;2022-12-20T05:59:41;35.37;;;10.50;;
30605;SDS011;17371;51.328;3.860;2022-12-20T06:02:07;29.90;;;10.27;;
30605;SDS011;17371;51.328;3.860;2022-12-20T06:04:32;24.40;;;9.20;;
30605;SDS011;17371;51.328;3.860;2022-12-20T06:06:58;25.38;;;8.35;;
30605;SDS011;17371;51.328;3.860;2022-12-20T06:09:23;30.30;;;10.37;;
30605;SDS011;17371;51.328;3.860;2022-12-20T06:11:50;27.60;;;10.37;;
30605;SDS011;17371;51.328;3.860;2022-12-20T06:14:15;35.78;;;11.95;;
30605;SDS011;17371;51.328;3.860;2022-12-20T06:16:40;43.70;;;14.83;;
30605;SDS011;17371;51.328;3.860;2022-12-20T06:19:06;37.37;;;13.50;;
30605;SDS011;17371;51.328;3.860;2022-12-20T06:21:31;55.17;;;17.27;;
30605;SDS011;17371;51.328;3.860;2022-12-20T06:23:57;44.27;;;15.63;;
30605;SDS011;17371;51.328;3.860;2022-12-20T06:26:22;38.07;;;12.47;;
30605;SDS011;17371;51.328;3.860;2022-12-20T06:28:49;39.00;;;12.13;;
30605;SDS011;17371;51.328;3.860;2022-12-20T06:31:14;28.58;;;10.35;;
30605;SDS011;17371;51.328;3.860;2022-12-20T06:33:40;21.60;;;8.13;;
30605;SDS011;17371;51.328;3.860;2022-12-20T06:36:07;16.75;;;5.55;;
30605;SDS011;17371;51.328;3.860;2022-12-20T06:38:33;12.35;;;5.28;;
30605;SDS011;17371;51.328;3.860;2022-12-20T06:40:58;12.30;;;3.87;;
30605;SDS011;17371;51.328;3.860;2022-12-20T06:43:23;10.53;;;4.00;;
30605;SDS011;17371;51.328;3.860;2022-12-20T06:45:50;9.00;;;3.97;;
30605;SDS011;17371;51.328;3.860;2022-12-20T06:48:16;7.30;;;3.70;;
30605;SDS011;17371;51.328;3.860;2022-12-20T06:50:41;6.93;;;3.60;;
30605;SDS011;17371;51.328;3.860;2022-12-20T06:53:06;8.27;;;3.63;;
30605;SDS011;17371;51.328;3.860;2022-12-20T06:55:32;10.23;;;4.63;;
30605;SDS011;17371;51.328;3.860;2022-12-20T06:57:57;9.40;;;3.47;;
30605;SDS011;17371;51.328;3.860;2022-12-20T07:00:23;8.63;;;3.60;;
30605;SDS011;17371;51.328;3.860;2022-12-20T07:02:50;10.47;;;3.70;;
30605;SDS011;17371;51.328;3.860;2022-12-20T07:05:15;5.65;;;3.28;;
30605;SDS011;17371;51.328;3.860;2022-12-20T07:07:40;7.53;;;3.20;;
30605;SDS011;17371;51.328;3.860;2022-12-20T07:10:06;6.87;;;3.50;;
30605;SDS011;17371;51.328;3.860;2022-12-20T07:12:32;10.73;;;3.55;;
30605;SDS011;17371;51.328;3.860;2022-12-20T07:14:58;8.77;;;3.63;;
30605;SDS011;17371;51.328;3.860;2022-12-20T07:17:23;9.00;;;3.30;;
30605;SDS011;17371;51.328;3.860;2022-12-20T07:19:50;6.57;;;3.58;;
30605;SDS011;17371;51.328;3.860;2022-12-20T07:22:15;8.73;;;3.70;;
30605;SDS011;17371;51.328;3.860;2022-12-20T07:24:41;8.95;;;3.63;;
30605;SDS011;17371;51.328;3.860;2022-12-20T07:27:06;7.23;;;3.40;;
30605;SDS011;17371;51.328;3.860;2022-12-20T07:29:34;9.88;;;3.80;;
30605;SDS011;17371;51.328;3.860;2022-12-20T07:31:59;8.83;;;3.40;;
30605;SDS011;17371;51.328;3.860;2022-12-20T07:34:24;6.37;;;3.33;;
30605;SDS011;17371;51.328;3.860;2022-12-20T07:36:51;6.33;;;3.03;;
30605;SDS011;17371;51.328;3.860;2022-12-20T07:39:16;6.15;;;3.15;;
30605;SDS011;17371;51.328;3.860;2022-12-20T07:41:42;9.60;;;3.60;;
30605;SDS011;17371;51.328;3.860;2022-12-20T07:44:07;8.75;;;3.50;;
30605;SDS011;17371;51.328;3.860;2022-12-20T07:46:33;7.43;;;4.28;;
30605;SDS011;17371;51.328;3.860;2022-12-20T07:48:58;6.27;;;3.50;;
30605;SDS011;17371;51.328;3.860;2022-12-20T07:51:24;8.30;;;3.80;;
30605;SDS011;17371;51.328;3.860;2022-12-20T07:53:53;9.32;;;3.67;;
30605;SDS011;17371;51.328;3.860;2022-12-20T07:56:22;11.57;;;3.92;;
30605;SDS011;17371;51.328;3.860;2022-12-20T07:58:47;10.87;;;5.07;;
30605;SDS011;17371;51.328;3.860;2022-12-20T08:01:14;8.90;;;3.70;;
30605;SDS011;17371;51.328;3.860;2022-12-20T08:03:41;10.30;;;3.80;;
30605;SDS011;17371;51.328;3.860;2022-12-20T08:06:09;8.85;;;3.85;;
30605;SDS011;17371;51.328;3.860;2022-12-20T08:08:35;9.23;;;4.00;;
30605;SDS011;17371;51.328;3.860;2022-12-20T08:11:04;9.25;;;4.40;;
30605;SDS011;17371;51.328;3.860;2022-12-20T08:13:31;12.23;;;4.93;;
30605;SDS011;17371;51.328;3.860;2022-12-20T08:15:56;16.58;;;6.43;;
30605;SDS011;17371;51.328;3.860;2022-12-20T08:18:22;20.10;;;5.80;;
30605;SDS011;17371;51.328;3.860;2022-12-20T08:20:48;18.03;;;6.07;;
30605;SDS011;17371;51.328;3.860;2022-12-20T08:23:14;34.17;;;9.20;;
30605;SDS011;17371;51.328;3.860;2022-12-20T08:25:40;20.77;;;7.17;;
30605;SDS011;17371;51.328;3.860;2022-12-20T08:28:06;19.90;;;7.17;;
30605;SDS011;17371;51.328;3.860;2022-12-20T08:30:32;13.43;;;4.82;;
30605;SDS011;17371;51.328;3.860;2022-12-20T08:32:57;16.40;;;5.97;;
30605;SDS011;17371;51.328;3.860;2022-12-20T08:35:22;15.37;;;5.97;;
30605;SDS011;17371;51.328;3.860;2022-12-20T08:37:49;17.45;;;5.22;;
30605;SDS011;17371;51.328;3.860;2022-12-20T08:40:15;17.60;;;5.27;;
30605;SDS011;17371;51.328;3.860;2022-12-20T08:42:41;16.45;;;5.43;;
30605;SDS011;17371;51.328;3.860;2022-12-20T08:45:08;20.50;;;6.77;;
30605;SDS011;17371;51.328;3.860;2022-12-20T08:47:33;16.23;;;5.72;;
30605;SDS011;17371;51.328;3.860;2022-12-20T08:49:59;19.47;;;7.13;;
30605;SDS011;17371;51.328;3.860;2022-12-20T08:52:24;20.93;;;8.37;;
30605;SDS011;17371;51.328;3.860;2022-12-20T08:54:50;25.13;;;8.80;;
30605;SDS011;17371;51.328;3.860;2022-12-20T08:57:15;16.43;;;7.00;;
30605;SDS011;17371;51.328;3.860;2022-12-20T08:59:40;16.00;;;5.32;;
30605;SDS011;17371;51.328;3.860;2022-12-20T09:02:07;17.40;;;4.72;;
30605;SDS011;17371;51.328;3.860;2022-12-20T09:04:32;11.07;;;4.60;;
30605;SDS011;17371;51.328;3.860;2022-12-20T09:06:58;11.43;;;4.47;;
30605;SDS011;17371;51.328;3.860;2022-12-20T09:09:23;9.07;;;4.30;;
30605;SDS011;17371;51.328;3.860;2022-12-20T09:11:49;9.83;;;3.13;;
30605;SDS011;17371;51.328;3.860;2022-12-20T09:14:14;9.90;;;3.80;;
30605;SDS011;17371;51.328;3.860;2022-12-20T09:16:39;14.10;;;4.80;;
30605;SDS011;17371;51.328;3.860;2022-12-20T09:19:06;10.15;;;4.60;;
30605;SDS011;17371;51.328;3.860;2022-12-20T09:21:31;13.55;;;5.03;;
30605;SDS011;17371;51.328;3.860;2022-12-20T09:23:57;13.98;;;4.78;;
30605;SDS011;17371;51.328;3.860;2022-12-20T09:26:23;10.33;;;5.23;;
30605;SDS011;17371;51.328;3.860;2022-12-20T09:28:48;12.95;;;4.70;;
30605;SDS011;17371;51.328;3.860;2022-12-20T09:31:14;9.63;;;4.30;;
30605;SDS011;17371;51.328;3.860;2022-12-20T09:33:41;10.43;;;4.30;;
30605;SDS011;17371;51.328;3.860;2022-12-20T09:36:12;9.48;;;3.88;;
30605;SDS011;17371;51.328;3.860;2022-12-20T09:38:38;11.90;;;4.40;;
30605;SDS011;17371;51.328;3.860;2022-12-20T09:41:04;8.40;;;4.40;;
30605;SDS011;17371;51.328;3.860;2022-12-20T09:43:31;10.70;;;4.55;;
30605;SDS011;17371;51.328;3.860;2022-12-20T09:45:57;12.48;;;5.00;;
30605;SDS011;17371;51.328;3.860;2022-12-20T09:48:25;7.97;;;4.03;;
30605;SDS011;17371;51.328;3.860;2022-12-20T09:50:57;7.67;;;4.10;;
30605;SDS011;17371;51.328;3.860;2022-12-20T09:53:31;7.10;;;4.15;;
30605;SDS011;17371;51.328;3.860;2022-12-20T09:56:02;9.48;;;3.97;;
30605;SDS011;17371;51.328;3.860;2022-12-20T09:58:34;9.90;;;4.35;;
30605;SDS011;17371;51.328;3.860;2022-12-20T10:01:15;7.03;;;4.78;;
30605;SDS011;17371;51.328;3.860;2022-12-20T10:03:43;12.97;;;4.53;;
30605;SDS011;17371;51.328;3.860;2022-12-20T10:06:10;9.50;;;4.90;;
30605;SDS011;17371;51.328;3.860;2022-12-20T10:08:43;10.20;;;4.07;;
30605;SDS011;17371;51.328;3.860;2022-12-20T10:11:11;7.28;;;3.85;;
30605;SDS011;17371;51.328;3.860;2022-12-20T10:13:47;10.68;;;4.80;;
30605;SDS011;17371;51.328;3.860;2022-12-20T10:16:23;9.70;;;4.85;;
30605;SDS011;17371;51.328;3.860;2022-12-20T10:18:58;10.77;;;4.22;;
30605;SDS011;17371;51.328;3.860;2022-12-20T10:21:33;11.80;;;5.17;;
30605;SDS011;17371;51.328;3.860;2022-12-20T10:24:07;13.20;;;5.47;;
30605;SDS011;17371;51.328;3.860;2022-12-20T10:26:35;10.15;;;5.35;;
30605;SDS011;17371;51.328;3.860;2022-12-20T10:29:01;12.53;;;5.80;;
30605;SDS011;17371;51.328;3.860;2022-12-20T10:31:26;10.23;;;4.70;;
30605;SDS011;17371;51.328;3.860;2022-12-20T10:33:52;14.38;;;5.38;;
30605;SDS011;17371;51.328;3.860;2022-12-20T10:36:18;11.47;;;5.60;;
30605;SDS011;17371;51.328;3.860;2022-12-20T10:38:49;11.33;;;5.27;;
30605;SDS011;17371;51.328;3.860;2022-12-20T10:41:18;13.00;;;5.60;;
30605;SDS011;17371;51.328;3.860;2022-12-20T10:43:44;10.73;;;5.80;;
30605;SDS011;17371;51.328;3.860;2022-12-20T10:46:10;8.57;;;5.20;;
30605;SDS011;17371;51.328;3.860;2022-12-20T10:48:38;9.63;;;5.90;;
30605;SDS011;17371;51.328;3.860;2022-12-20T10:51:11;8.97;;;5.27;;
30605;SDS011;17371;51.328;3.860;2022-12-20T10:53:47;10.75;;;4.88;;
30605;SDS011;17371;51.328;3.860;2022-12-20T10:56:17;11.50;;;5.60;;
30605;SDS011;17371;51.328;3.860;2022-12-20T10:58:50;10.82;;;5.57;;
30605;SDS011;17371;51.328;3.860;2022-12-20T11:01:18;10.50;;;5.10;;
30605;SDS011;17371;51.328;3.860;2022-12-20T11:03:52;12.93;;;5.87;;
30605;SDS011;17371;51.328;3.860;2022-12-20T11:06:19;14.85;;;5.90;;
30605;SDS011;17371;51.328;3.860;2022-12-20T11:08:46;11.38;;;5.65;;
30605;SDS011;17371;51.328;3.860;2022-12-20T11:11:13;11.33;;;5.63;;
30605;SDS011;17371;51.328;3.860;2022-12-20T11:13:42;11.23;;;6.05;;
30605;SDS011;17371;51.328;3.860;2022-12-20T11:16:20;11.05;;;5.72;;
30605;SDS011;17371;51.328;3.860;2022-12-20T11:19:17;9.57;;;5.93;;
30605;SDS011;17371;51.328;3.860;2022-12-20T11:21:55;13.40;;;6.28;;
30605;SDS011;17371;51.328;3.860;2022-12-20T11:24:25;10.97;;;5.77;;
30605;SDS011;17371;51.328;3.860;2022-12-20T11:26:58;11.55;;;5.47;;
30605;SDS011;17371;51.328;3.860;2022-12-20T11:29:36;9.45;;;5.75;;
30605;SDS011;17371;51.328;3.860;2022-12-20T11:32:36;9.40;;;5.35;;
30605;SDS011;17371;51.328;3.860;2022-12-20T11:35:08;8.90;;;5.35;;
30605;SDS011;17371;51.328;3.860;2022-12-20T11:37:36;10.43;;;5.23;;
30605;SDS011;17371;51.328;3.860;2022-12-20T11:40:15;12.30;;;5.78;;
30605;SDS011;17371;51.328;3.860;2022-12-20T11:42:51;12.32;;;6.28;;
30605;SDS011;17371;51.328;3.860;2022-12-20T11:45:24;12.32;;;6.32;;
30605;SDS011;17371;51.328;3.860;2022-12-20T11:48:02;15.77;;;7.03;;
30605;SDS011;17371;51.328;3.860;2022-12-20T11:50:46;11.90;;;6.03;;
30605;SDS011;17371;51.328;3.860;2022-12-20T11:53:18;11.02;;;7.00;;
30605;SDS011;17371;51.328;3.860;2022-12-20T11:55:46;11.90;;;6.90;;
30605;SDS011;17371;51.328;3.860;2022-12-20T11:58:17;13.65;;;7.07;;
30605;SDS011;17371;51.328;3.860;2022-12-20T12:00:49;12.38;;;6.80;;
30605;SDS011;17371;51.328;3.860;2022-12-20T12:03:18;11.17;;;6.70;;
30605;SDS011;17371;51.328;3.860;2022-12-20T12:05:48;11.65;;;7.38;;
30605;SDS011;17371;51.328;3.860;2022-12-20T12:08:17;10.88;;;7.20;;
30605;SDS011;17371;51.328;3.860;2022-12-20T12:10:54;10.63;;;6.85;;
30605;SDS011;17371;51.328;3.860;2022-12-20T12:13:22;12.15;;;6.80;;
30605;SDS011;17371;51.328;3.860;2022-12-20T12:15:54;11.50;;;6.70;;
30605;SDS011;17371;51.328;3.860;2022-12-20T12:18:24;10.68;;;7.18;;
30605;SDS011;17371;51.328;3.860;2022-12-20T12:20:53;9.93;;;7.00;;
30605;SDS011;17371;51.328;3.860;2022-12-20T12:23:24;9.60;;;6.28;;
30605;SDS011;17371;51.328;3.860;2022-12-20T12:25:51;10.05;;;6.68;;
30605;SDS011;17371;51.328;3.860;2022-12-20T12:28:17;9.83;;;5.93;;
30605;SDS011;17371;51.328;3.860;2022-12-20T12:30:45;8.50;;;6.35;;
30605;SDS011;17371;51.328;3.860;2022-12-20T12:33:17;9.98;;;6.50;;
30605;SDS011;17371;51.328;3.860;2022-12-20T12:35:46;11.83;;;6.27;;
30605;SDS011;17371;51.328;3.860;2022-12-20T12:44:25;13.05;;;7.40;;
30605;SDS011;17371;51.328;3.860;2022-12-20T12:46:57;15.05;;;7.32;;
30605;SDS011;17371;51.328;3.860;2022-12-20T12:49:26;14.17;;;7.83;;
30605;SDS011;17371;51.328;3.860;2022-12-20T12:51:53;12.95;;;7.50;;
30605;SDS011;17371;51.328;3.860;2022-12-20T12:54:21;11.85;;;7.63;;
30605;SDS011;17371;51.328;3.860;2022-12-20T12:56:47;12.52;;;7.80;;
30605;SDS011;17371;51.328;3.860;2022-12-20T12:59:22;13.82;;;7.75;;
30605;SDS011;17371;51.328;3.860;2022-12-20T13:01:52;12.57;;;7.17;;
30605;SDS011;17371;51.328;3.860;2022-12-20T13:04:21;12.05;;;8.00;;
30605;SDS011;17371;51.328;3.860;2022-12-20T13:07:00;10.55;;;6.60;;
30605;SDS011;17371;51.328;3.860;2022-12-20T13:18:26;12.48;;;6.28;;
30605;SDS011;17371;51.328;3.860;2022-12-20T13:27:03;9.90;;;5.45;;
30605;SDS011;17371;51.328;3.860;2022-12-20T13:29:42;10.23;;;5.63;;
30605;SDS011;17371;51.328;3.860;2022-12-20T13:37:57;9.88;;;5.68;;
30605;SDS011;17371;51.328;3.860;2022-12-20T13:40:25;8.95;;;5.57;;
30605;SDS011;17371;51.328;3.860;2022-12-20T13:42:58;9.20;;;5.47;;
30605;SDS011;17371;51.328;3.860;2022-12-20T13:45:29;7.97;;;5.65;;
30605;SDS011;17371;51.328;3.860;2022-12-20T13:47:55;8.30;;;5.77;;
30605;SDS011;17371;51.328;3.860;2022-12-20T13:50:32;8.52;;;5.20;;
30605;SDS011;17371;51.328;3.860;2022-12-20T13:53:00;9.13;;;5.53;;
30605;SDS011;17371;51.328;3.860;2022-12-20T13:55:30;9.10;;;5.60;;
30605;SDS011;17371;51.328;3.860;2022-12-20T13:58:03;11.90;;;5.40;;
30605;SDS011;17371;51.328;3.860;2022-12-20T14:00:30;8.27;;;5.15;;
30605;SDS011;17371;51.328;3.860;2022-12-20T14:02:55;8.57;;;5.03;;
30605;SDS011;17371;51.328;3.860;2022-12-20T14:05:21;9.48;;;5.00;;
30605;SDS011;17371;51.328;3.860;2022-12-20T14:07:49;9.00;;;5.60;;
30605;SDS011;17371;51.328;3.860;2022-12-20T14:10:20;10.00;;;5.57;;
30605;SDS011;17371;51.328;3.860;2022-12-20T14:12:48;7.93;;;5.05;;
30605;SDS011;17371;51.328;3.860;2022-12-20T14:15:25;8.93;;;5.38;;
30605;SDS011;17371;51.328;3.860;2022-12-20T14:17:51;10.85;;;5.93;;
30605;SDS011;17371;51.328;3.860;2022-12-20T14:20:18;9.70;;;5.63;;
30605;SDS011;17371;51.328;3.860;2022-12-20T14:22:49;8.38;;;5.55;;
30605;SDS011;17371;51.328;3.860;2022-12-20T14:25:20;9.07;;;5.20;;
30605;SDS011;17371;51.328;3.860;2022-12-20T14:27:51;8.25;;;5.68;;
30605;SDS011;17371;51.328;3.860;2022-12-20T14:30:26;11.30;;;5.78;;
30605;SDS011;17371;51.328;3.860;2022-12-20T14:32:53;8.05;;;5.63;;
30605;SDS011;17371;51.328;3.860;2022-12-20T14:35:19;10.18;;;5.35;;
30605;SDS011;17371;51.328;3.860;2022-12-20T14:37:51;8.50;;;5.90;;
30605;SDS011;17371;51.328;3.860;2022-12-20T14:40:17;9.25;;;5.65;;
30605;SDS011;17371;51.328;3.860;2022-12-20T14:42:44;10.30;;;5.75;;
30605;SDS011;17371;51.328;3.860;2022-12-20T14:45:15;9.93;;;6.10;;
30605;SDS011;17371;51.328;3.860;2022-12-20T14:47:48;8.77;;;6.07;;
30605;SDS011;17371;51.328;3.860;2022-12-20T14:50:16;8.98;;;6.10;;
30605;SDS011;17371;51.328;3.860;2022-12-20T14:52:43;9.13;;;5.45;;
30605;SDS011;17371;51.328;3.860;2022-12-20T14:55:12;8.50;;;6.10;;
30605;SDS011;17371;51.328;3.860;2022-12-20T14:57:42;12.45;;;6.43;;
30605;SDS011;17371;51.328;3.860;2022-12-20T15:00:11;12.48;;;6.53;;
30605;SDS011;17371;51.328;3.860;2022-12-20T15:02:39;10.32;;;6.50;;
30605;SDS011;17371;51.328;3.860;2022-12-20T15:05:07;11.50;;;6.37;;
30605;SDS011;17371;51.328;3.860;2022-12-20T15:07:34;11.02;;;6.50;;